Terminal Aerodrome Forecast
Issued by NWS

Home | Current Version | Previous Version | Text Only | Print | Product List | Glossary On
Versions: 1 2 3 4 5 6 7 8 9 10 11 12 13 14 15
000
FTUS41 KBTV 232320
TAFSLK
TAF
KSLK 232320Z 2400/2424 VRB03KT P6SM FEW250
     FM240800 22005KT P6SM VCSH OVC060
     FM241300 21008KT 1SM -SN BR SCT015 OVC020
     FM241700 22010G19KT 1 1/2SM -RASNPL BR SCT008 OVC012
     FM241900 23010G18KT 2SM -RA BR SCT008 OVC010=

USA.gov is the U.S. government's official web portal to all federal, state and local government web resources and services.